Time,TemperatureF,DewpointF,PressureIn,WindDirection,WindDirectionDegrees,WindSpeedMPH,WindSpeedGustMPH,Humidity,HourlyPrecipIn,Conditions,Clouds,dailyrainin,SoftwareType,DateUTC
2013-03-08 00:09:00,33.4,24.0,30.18,NE,35,3.0,-999.0,68,-99.99,,,0.00,weatherlink.com 1.10,2013-03-08 05:09:00,
2013-03-08 00:24:00,33.0,23.0,30.17,NNE,19,2.0,-999.0,68,-99.99,,,0.00,weatherlink.com 1.10,2013-03-08 05:24:00,
2013-03-08 00:39:00,32.9,23.0,30.17,NNE,15,4.0,-999.0,68,-99.99,,,0.00,weatherlink.com 1.10,2013-03-08 05:39:00,
2013-03-08 00:54:00,33.3,23.0,30.17,North,11,2.0,-999.0,66,-99.99,,,0.00,weatherlink.com 1.10,2013-03-08 05:54:00,
2013-03-08 01:09:00,32.3,23.0,30.17,NE,36,3.0,-999.0,68,-99.99,,,0.00,weatherlink.com 1.10,2013-03-08 06:09:00,
2013-03-08 01:24:00,32.1,22.0,30.18,NNE,27,2.0,-999.0,67,-99.99,,,0.00,weatherlink.com 1.10,2013-03-08 06:24:00,
2013-03-08 01:39:00,32.0,21.0,30.18,NNE,26,2.0,-999.0,65,-99.99,,,0.00,weatherlink.com 1.10,2013-03-08 06:39:00,
2013-03-08 01:54:00,32.7,21.0,30.18,NNE,18,2.0,-999.0,63,-99.99,,,0.00,weatherlink.com 1.10,2013-03-08 06:54:00,
2013-03-08 02:09:00,32.5,21.0,30.18,North,11,3.0,-999.0,63,-99.99,,,0.00,weatherlink.com 1.10,2013-03-08 07:09:00,
2013-03-08 02:24:00,33.1,21.0,30.18,NNW,348,4.0,-999.0,61,-99.99,,,0.00,weatherlink.com 1.10,2013-03-08 07:24:00,
2013-03-08 02:39:00,33.8,21.0,30.18,NNW,345,2.0,-999.0,60,-99.99,,,0.00,weatherlink.com 1.10,2013-03-08 07:39:00,
2013-03-08 02:54:00,34.4,21.0,30.17,NNW,346,0.0,-999.0,58,-99.99,,,0.00,weatherlink.com 1.10,2013-03-08 07:54:00,
2013-03-08 03:09:00,34.3,21.0,30.17,NNW,346,2.0,-999.0,58,-99.99,,,0.00,weatherlink.com 1.10,2013-03-08 08:09:00,
2013-03-08 03:24:00,33.5,20.0,30.17,NNW,346,4.0,-999.0,59,-99.99,,,0.00,weatherlink.com 1.10,2013-03-08 08:24:00,
2013-03-08 03:39:00,33.6,22.0,30.16,NNW,346,0.0,-999.0,62,-99.99,,,0.00,weatherlink.com 1.10,2013-03-08 08:39:00,
2013-03-08 03:54:00,33.4,22.0,30.17,NNW,346,1.0,-999.0,63,-99.99,,,0.00,weatherlink.com 1.10,2013-03-08 08:54:00,
2013-03-08 04:09:00,32.8,22.0,30.17,NNW,345,5.0,-999.0,65,-99.99,,,0.00,weatherlink.com 1.10,2013-03-08 09:09:00,
2013-03-08 04:24:00,32.1,21.0,30.17,NNW,347,6.0,-999.0,65,-99.99,,,0.00,weatherlink.com 1.10,2013-03-08 09:24:00,
2013-03-08 04:39:00,31.5,21.0,30.17,NNW,337,9.0,-999.0,65,-99.99,,,0.00,weatherlink.com 1.10,2013-03-08 09:39:00,
2013-03-08 04:54:00,31.8,21.0,30.17,NNW,348,5.0,-999.0,64,-99.99,,,0.00,weatherlink.com 1.10,2013-03-08 09:54:00,
2013-03-08 05:09:00,31.9,20.0,30.18,NNW,348,8.0,-999.0,62,-99.99,,,0.00,weatherlink.com 1.10,2013-03-08 10:09:00,
2013-03-08 05:24:00,32.0,20.0,30.17,North,355,5.0,-999.0,61,-99.99,,,0.00,weatherlink.com 1.10,2013-03-08 10:24:00,
2013-03-08 05:39:00,32.5,19.0,30.18,NNE,18,5.0,-999.0,59,-99.99,,,0.00,weatherlink.com 1.10,2013-03-08 10:39:00,
2013-03-08 05:54:00,32.9,19.0,30.18,NNW,348,4.0,-999.0,57,-99.99,,,0.00,weatherlink.com 1.10,2013-03-08 10:54:00,
2013-03-08 06:09:00,33.0,19.0,30.18,NNW,348,2.0,-999.0,56,-99.99,,,0.00,weatherlink.com 1.10,2013-03-08 11:09:00,
2013-03-08 06:24:00,32.4,19.0,30.19,North,351,2.0,-999.0,57,-99.99,,,0.00,weatherlink.com 1.10,2013-03-08 11:24:00,
2013-03-08 06:39:00,32.5,17.0,30.19,NNE,17,5.0,-999.0,53,-99.99,,,0.00,weatherlink.com 1.10,2013-03-08 11:39:00,
2013-03-08 06:54:00,33.2,16.0,30.19,North,355,5.0,-999.0,49,-99.99,,,0.00,weatherlink.com 1.10,2013-03-08 11:54:00,
2013-03-08 07:09:00,33.4,15.0,30.19,North,11,3.0,-999.0,47,-99.99,,,0.00,weatherlink.com 1.10,2013-03-08 12:09:00,
2013-03-08 07:24:00,33.8,14.0,30.19,NNE,12,2.0,-999.0,45,-99.99,,,0.00,weatherlink.com 1.10,2013-03-08 12:24:00,
2013-03-08 07:39:00,34.4,14.0,30.20,North,5,2.0,-999.0,43,-99.99,,,0.00,weatherlink.com 1.10,2013-03-08 12:39:00,
2013-03-08 07:54:00,34.4,15.0,30.21,NNE,12,2.0,-999.0,46,-99.99,,,0.00,weatherlink.com 1.10,2013-03-08 12:54:00,
2013-03-08 08:09:00,34.4,15.0,30.21,NNE,12,2.0,-999.0,45,-99.99,,,0.00,weatherlink.com 1.10,2013-03-08 13:09:00,
2013-03-08 08:24:00,34.6,14.0,30.22,NNW,337,4.0,-999.0,42,-99.99,,,0.00,weatherlink.com 1.10,2013-03-08 13:24:00,
2013-03-08 08:39:00,35.0,14.0,30.22,NNW,340,4.0,-999.0,43,-99.99,,,0.00,weatherlink.com 1.10,2013-03-08 13:39:00,
2013-03-08 08:54:00,35.2,14.0,30.23,NNW,344,2.0,-999.0,41,-99.99,,,0.00,weatherlink.com 1.10,2013-03-08 13:54:00,
2013-03-08 09:09:00,36.0,12.0,30.23,North,355,5.0,-999.0,37,-99.99,,,0.00,weatherlink.com 1.10,2013-03-08 14:09:00,
2013-03-08 09:24:00,37.2,11.0,30.22,North,355,0.0,-999.0,34,-99.99,,,0.00,weatherlink.com 1.10,2013-03-08 14:24:00,
2013-03-08 09:39:00,38.8,10.0,30.22,NE,34,0.0,-999.0,30,-99.99,,,0.00,weatherlink.com 1.10,2013-03-08 14:39:00,
2013-03-08 09:54:00,40.4,16.0,30.23,North,351,0.0,-999.0,38,-99.99,,,0.00,weatherlink.com 1.10,2013-03-08 14:54:00,
2013-03-08 10:09:00,41.1,15.0,30.23,NNW,347,6.0,-999.0,34,-99.99,,,0.00,weatherlink.com 1.10,2013-03-08 15:09:00,
2013-03-08 10:24:00,41.4,17.0,30.23,NNW,343,7.0,-999.0,37,-99.99,,,0.00,weatherlink.com 1.10,2013-03-08 15:24:00,
2013-03-08 10:39:00,42.3,18.0,30.23,NNW,340,5.0,-999.0,37,-99.99,,,0.00,weatherlink.com 1.10,2013-03-08 15:39:00,
2013-03-08 10:54:00,44.3,14.0,30.23,NNE,19,2.0,-999.0,29,-99.99,,,0.00,weatherlink.com 1.10,2013-03-08 15:54:00,
2013-03-08 11:09:00,46.9,13.0,30.22,NW,319,6.0,-999.0,25,-99.99,,,0.00,weatherlink.com 1.10,2013-03-08 16:09:00,
2013-03-08 11:24:00,48.6,14.0,30.22,NW,318,5.0,-999.0,25,-99.99,,,0.00,weatherlink.com 1.10,2013-03-08 16:24:00,
2013-03-08 11:40:00,49.6,23.0,30.22,WSW,250,0.0,-999.0,36,-99.99,,,0.00,weatherlink.com 1.10,2013-03-08 16:40:00,
2013-03-08 11:55:00,50.8,26.0,30.21,West,267,4.0,-999.0,39,-99.99,,,0.00,weatherlink.com 1.10,2013-03-08 16:55:00,
2013-03-08 12:09:00,51.0,29.0,30.21,NNW,328,5.0,-999.0,43,-99.99,,,0.00,weatherlink.com 1.10,2013-03-08 17:09:00,
2013-03-08 12:25:00,51.3,29.0,30.21,SSE,168,0.0,-999.0,42,-99.99,,,0.00,weatherlink.com 1.10,2013-03-08 17:25:00,
2013-03-08 12:39:00,51.5,28.0,30.21,SE,146,0.0,-999.0,41,-99.99,,,0.00,weatherlink.com 1.10,2013-03-08 17:39:00,
2013-03-08 12:54:00,51.6,30.0,30.20,SSW,197,1.0,-999.0,43,-99.99,,,0.00,weatherlink.com 1.10,2013-03-08 17:54:00,
2013-03-08 13:09:00,53.3,29.0,30.20,South,181,3.0,-999.0,39,-99.99,,,0.00,weatherlink.com 1.10,2013-03-08 18:09:00,
2013-03-08 13:24:00,53.5,31.0,30.20,South,180,0.0,-999.0,42,-99.99,,,0.00,weatherlink.com 1.10,2013-03-08 18:24:00,
2013-03-08 13:39:00,53.9,29.0,30.20,South,170,4.0,-999.0,39,-99.99,,,0.00,weatherlink.com 1.10,2013-03-08 18:39:00,
2013-03-08 13:54:00,53.5,30.0,30.19,SSE,163,0.0,-999.0,40,-99.99,,,0.00,weatherlink.com 1.10,2013-03-08 18:54:00,
2013-03-08 14:09:00,53.3,28.0,30.19,SSW,205,1.0,-999.0,38,-99.99,,,0.00,weatherlink.com 1.10,2013-03-08 19:09:00,
2013-03-08 14:24:00,53.5,29.0,30.19,SSW,196,2.0,-999.0,39,-99.99,,,0.00,weatherlink.com 1.10,2013-03-08 19:24:00,
2013-03-08 14:39:00,53.9,27.0,30.19,WSW,246,3.0,-999.0,36,-99.99,,,0.00,weatherlink.com 1.10,2013-03-08 19:39:00,
2013-03-08 14:54:00,53.7,28.0,30.19,SSW,202,6.0,-999.0,37,-99.99,,,0.00,weatherlink.com 1.10,2013-03-08 19:54:00,
2013-03-08 15:10:00,53.5,28.0,30.18,WSW,246,1.0,-999.0,37,-99.99,,,0.00,weatherlink.com 1.10,2013-03-08 20:10:00,
2013-03-08 15:24:00,53.6,27.0,30.17,NNW,329,7.0,-999.0,36,-99.99,,,0.00,weatherlink.com 1.10,2013-03-08 20:24:00,
2013-03-08 15:39:00,54.0,25.0,30.16,South,180,3.0,-999.0,32,-99.99,,,0.00,weatherlink.com 1.10,2013-03-08 20:39:00,
2013-03-08 15:55:00,53.5,25.0,30.16,South,180,3.0,-999.0,33,-99.99,,,0.00,weatherlink.com 1.10,2013-03-08 20:55:00,
2013-03-08 16:10:00,53.0,25.0,30.16,WNW,290,4.0,-999.0,34,-99.99,,,0.00,weatherlink.com 1.10,2013-03-08 21:10:00,
2013-03-08 16:25:00,52.6,25.0,30.16,SSE,165,0.0,-999.0,35,-99.99,,,0.00,weatherlink.com 1.10,2013-03-08 21:25:00,
2013-03-08 16:40:00,52.7,26.0,30.16,SSW,196,2.0,-999.0,36,-99.99,,,0.00,weatherlink.com 1.10,2013-03-08 21:40:00,
2013-03-08 16:55:00,52.2,26.0,30.17,SSW,196,0.0,-999.0,36,-99.99,,,0.00,weatherlink.com 1.10,2013-03-08 21:55:00,
2013-03-08 17:10:00,51.5,25.0,30.17,SSE,163,0.0,-999.0,36,-99.99,,,0.00,weatherlink.com 1.10,2013-03-08 22:10:00,
2013-03-08 17:25:00,50.9,26.0,30.17,SSE,155,1.0,-999.0,38,-99.99,,,0.00,weatherlink.com 1.10,2013-03-08 22:25:00,
2013-03-08 17:40:00,50.2,25.0,30.18,SSE,154,0.0,-999.0,37,-99.99,,,0.00,weatherlink.com 1.10,2013-03-08 22:40:00,
2013-03-08 17:55:00,49.6,25.0,30.17,North,5,4.0,-999.0,38,-99.99,,,0.00,weatherlink.com 1.10,2013-03-08 22:55:00,
2013-03-08 18:10:00,48.9,23.0,30.18,NW,318,0.0,-999.0,37,-99.99,,,0.00,weatherlink.com 1.10,2013-03-08 23:10:00,
2013-03-08 18:25:00,47.7,20.0,30.19,NW,323,2.0,-999.0,34,-99.99,,,0.00,weatherlink.com 1.10,2013-03-08 23:25:00,
2013-03-08 18:40:00,46.7,18.0,30.19,North,350,5.0,-999.0,32,-99.99,,,0.00,weatherlink.com 1.10,2013-03-08 23:40:00,
2013-03-08 18:55:00,45.6,18.0,30.19,NE,53,2.0,-999.0,33,-99.99,,,0.00,weatherlink.com 1.10,2013-03-08 23:55:00,
2013-03-08 19:10:00,45.0,17.0,30.20,NE,51,1.0,-999.0,32,-99.99,,,0.00,weatherlink.com 1.10,2013-03-09 00:10:00,
2013-03-08 19:25:00,44.4,17.0,30.21,NE,46,1.0,-999.0,33,-99.99,,,0.00,weatherlink.com 1.10,2013-03-09 00:25:00,
2013-03-08 19:40:00,44.0,16.0,30.21,NE,49,0.0,-999.0,32,-99.99,,,0.00,weatherlink.com 1.10,2013-03-09 00:40:00,
2013-03-08 19:55:00,43.8,15.0,30.21,NE,45,0.0,-999.0,31,-99.99,,,0.00,weatherlink.com 1.10,2013-03-09 00:55:00,
2013-03-08 20:10:00,43.2,15.0,30.22,NE,43,3.0,-999.0,32,-99.99,,,0.00,weatherlink.com 1.10,2013-03-09 01:10:00,
2013-03-08 20:25:00,43.2,15.0,30.23,NE,37,0.0,-999.0,32,-99.99,,,0.00,weatherlink.com 1.10,2013-03-09 01:25:00,
2013-03-08 20:40:00,43.1,15.0,30.22,NE,42,3.0,-999.0,32,-99.99,,,0.00,weatherlink.com 1.10,2013-03-09 01:40:00,
2013-03-08 20:55:00,43.6,15.0,30.22,North,355,1.0,-999.0,32,-99.99,,,0.00,weatherlink.com 1.10,2013-03-09 01:55:00,
2013-03-08 21:10:00,43.2,16.0,30.22,ENE,57,6.0,-999.0,34,-99.99,,,0.00,weatherlink.com 1.10,2013-03-09 02:10:00,
2013-03-08 21:25:00,43.0,16.0,30.22,NE,38,4.0,-999.0,34,-99.99,,,0.00,weatherlink.com 1.10,2013-03-09 02:25:00,
2013-03-08 21:40:00,42.4,17.0,30.21,NE,53,4.0,-999.0,36,-99.99,,,0.00,weatherlink.com 1.10,2013-03-09 02:40:00,
2013-03-08 21:55:00,42.0,16.0,30.22,ENE,67,2.0,-999.0,35,-99.99,,,0.00,weatherlink.com 1.10,2013-03-09 02:55:00,
2013-03-08 22:10:00,42.5,14.0,30.22,South,171,2.0,-999.0,31,-99.99,,,0.00,weatherlink.com 1.10,2013-03-09 03:10:00,
2013-03-08 22:25:00,42.4,14.0,30.22,NE,51,3.0,-999.0,31,-99.99,,,0.00,weatherlink.com 1.10,2013-03-09 03:25:00,
2013-03-08 22:40:00,41.8,13.0,30.23,East,79,2.0,-999.0,31,-99.99,,,0.00,weatherlink.com 1.10,2013-03-09 03:40:00,
2013-03-08 22:55:00,40.9,12.0,30.23,East,79,0.0,-999.0,30,-99.99,,,0.00,weatherlink.com 1.10,2013-03-09 03:55:00,
2013-03-08 23:10:00,41.2,11.0,30.23,NNE,29,0.0,-999.0,29,-99.99,,,0.00,weatherlink.com 1.10,2013-03-09 04:10:00,
2013-03-08 23:25:00,40.7,10.0,30.22,NNE,29,1.0,-999.0,28,-99.99,,,0.00,weatherlink.com 1.10,2013-03-09 04:25:00,
2013-03-08 23:40:00,41.1,9.0,30.22,NNE,29,0.0,-999.0,27,-99.99,,,0.00,weatherlink.com 1.10,2013-03-09 04:40:00,
2013-03-08 23:55:00,40.3,10.0,30.23,NNE,29,0.0,-999.0,29,-99.99,,,0.00,weatherlink.com 1.10,2013-03-09 04:55:00,